sensor_id;sensor_type;location;lat;lon;timestamp;pressure;altitude;pressure_sealevel;temperature;humidity
30614;BME280;17381;51.690;5.270;2023-04-27T00:01:04;102095.72;;;6.14;66.05
30614;BME280;17381;51.690;5.270;2023-04-27T00:04:27;102093.97;;;6.09;65.96
30614;BME280;17381;51.690;5.270;2023-04-27T00:11:25;102089.47;;;5.99;66.48
30614;BME280;17381;51.690;5.270;2023-04-27T00:14:08;102092.03;;;5.96;66.33
30614;BME280;17381;51.690;5.270;2023-04-27T00:16:42;102093.75;;;5.96;66.60
30614;BME280;17381;51.690;5.270;2023-04-27T00:19:23;102085.81;;;5.89;66.73
30614;BME280;17381;51.690;5.270;2023-04-27T00:22:09;102097.16;;;5.92;67.13
30614;BME280;17381;51.690;5.270;2023-04-27T00:24:49;102087.47;;;5.83;67.30
30614;BME280;17381;51.690;5.270;2023-04-27T00:27:48;102075.22;;;5.76;67.36
30614;BME280;17381;51.690;5.270;2023-04-27T00:30:48;102097.94;;;5.84;67.05
30614;BME280;17381;51.690;5.270;2023-04-27T00:33:37;102097.84;;;5.80;67.33
30614;BME280;17381;51.690;5.270;2023-04-27T00:37:04;102085.66;;;5.76;67.12
30614;BME280;17381;51.690;5.270;2023-04-27T00:40:11;102096.00;;;5.73;67.10
30614;BME280;17381;51.690;5.270;2023-04-27T00:43:22;102095.06;;;5.67;67.52
30614;BME280;17381;51.690;5.270;2023-04-27T00:46:14;102104.56;;;5.62;67.44
30614;BME280;17381;51.690;5.270;2023-04-27T00:49:01;102091.47;;;5.59;67.87
30614;BME280;17381;51.690;5.270;2023-04-27T00:58:08;102096.56;;;5.52;67.98
30614;BME280;17381;51.690;5.270;2023-04-27T01:01:21;102093.13;;;5.53;68.27
30614;BME280;17381;51.690;5.270;2023-04-27T01:04:15;102083.41;;;5.42;68.16
30614;BME280;17381;51.690;5.270;2023-04-27T01:06:59;102100.00;;;5.47;68.17
30614;BME280;17381;51.690;5.270;2023-04-27T01:14:26;102091.13;;;5.36;68.37
30614;BME280;17381;51.690;5.270;2023-04-27T01:29:00;102077.78;;;5.16;68.70
30614;BME280;17381;51.690;5.270;2023-04-27T01:38:18;102073.31;;;5.11;69.13
30614;BME280;17381;51.690;5.270;2023-04-27T01:41:03;102077.75;;;5.15;68.98
30614;BME280;17381;51.690;5.270;2023-04-27T01:44:01;102040.84;;;4.90;69.27
30614;BME280;17381;51.690;5.270;2023-04-27T01:46:43;102067.16;;;5.06;69.14
30614;BME280;17381;51.690;5.270;2023-04-27T01:49:27;102011.19;;;4.80;69.08
30614;BME280;17381;51.690;5.270;2023-04-27T01:52:34;102068.97;;;5.10;69.44
30614;BME280;17381;51.690;5.270;2023-04-27T01:55:27;102075.88;;;5.06;69.48
30614;BME280;17381;51.690;5.270;2023-04-27T01:58:04;102054.81;;;4.94;69.16
30614;BME280;17381;51.690;5.270;2023-04-27T02:01:18;102070.63;;;5.05;68.80
30614;BME280;17381;51.690;5.270;2023-04-27T02:04:26;102070.56;;;5.01;69.04
30614;BME280;17381;51.690;5.270;2023-04-27T02:07:16;102057.34;;;4.89;69.10
30614;BME280;17381;51.690;5.270;2023-04-27T02:10:02;102038.94;;;4.80;69.09
30614;BME280;17381;51.690;5.270;2023-04-27T02:12:59;102039.88;;;4.85;69.01
30614;BME280;17381;51.690;5.270;2023-04-27T02:15:59;102060.84;;;4.91;68.69
30614;BME280;17381;51.690;5.270;2023-04-27T02:22:05;102033.69;;;4.77;68.82
30614;BME280;17381;51.690;5.270;2023-04-27T02:24:48;102054.78;;;4.91;68.73
30614;BME280;17381;51.690;5.270;2023-04-27T02:27:50;102034.50;;;4.74;69.03
30614;BME280;17381;51.690;5.270;2023-04-27T02:30:35;102041.66;;;4.86;69.03
30614;BME280;17381;51.690;5.270;2023-04-27T02:33:46;102032.81;;;4.76;68.72
30614;BME280;17381;51.690;5.270;2023-04-27T02:36:36;102037.28;;;4.84;68.74
30614;BME280;17381;51.690;5.270;2023-04-27T02:39:15;102031.91;;;4.74;69.13
30614;BME280;17381;51.690;5.270;2023-04-27T02:42:06;102041.53;;;4.80;68.77
30614;BME280;17381;51.690;5.270;2023-04-27T02:45:04;102042.41;;;4.79;68.78
30614;BME280;17381;51.690;5.270;2023-04-27T02:47:53;102038.88;;;4.77;68.77
30614;BME280;17381;51.690;5.270;2023-04-27T02:50:50;102049.31;;;4.77;68.91
30614;BME280;17381;51.690;5.270;2023-04-27T02:53:40;102052.72;;;4.74;68.57
30614;BME280;17381;51.690;5.270;2023-04-27T03:50:54;102055.44;;;4.33;68.76
30614;BME280;17381;51.690;5.270;2023-04-27T03:53:37;102068.59;;;4.41;69.00
30614;BME280;17381;51.690;5.270;2023-04-27T03:56:38;102059.81;;;4.36;68.94
30614;BME280;17381;51.690;5.270;2023-04-27T03:59:41;102072.13;;;4.43;68.97
30614;BME280;17381;51.690;5.270;2023-04-27T04:02:37;102070.31;;;4.41;68.83
30614;BME280;17381;51.690;5.270;2023-04-27T04:05:36;102081.44;;;4.32;69.12
30614;BME280;17381;51.690;5.270;2023-04-27T04:08:36;102080.59;;;4.33;69.39
30614;BME280;17381;51.690;5.270;2023-04-27T04:38:11;102080.16;;;4.11;69.60
30614;BME280;17381;51.690;5.270;2023-04-27T04:41:02;102088.13;;;4.21;70.24
30614;BME280;17381;51.690;5.270;2023-04-27T04:44:02;102097.66;;;4.19;70.55
30614;BME280;17381;51.690;5.270;2023-04-27T04:46:52;102036.28;;;3.86;69.94
30614;BME280;17381;51.690;5.270;2023-04-27T04:49:53;102103.84;;;4.24;70.26
30614;BME280;17381;51.690;5.270;2023-04-27T04:52:56;102103.84;;;4.25;69.81
30614;BME280;17381;51.690;5.270;2023-04-27T04:55:40;102103.03;;;4.26;69.83
30614;BME280;17381;51.690;5.270;2023-04-27T04:58:35;102096.03;;;4.24;70.34
30614;BME280;17381;51.690;5.270;2023-04-27T05:01:32;102102.22;;;4.30;70.04
30614;BME280;17381;51.690;5.270;2023-04-27T05:39:22;102073.44;;;4.23;69.89
30614;BME280;17381;51.690;5.270;2023-04-27T06:13:04;102118.47;;;5.10;68.73
30614;BME280;17381;51.690;5.270;2023-04-27T06:16:11;102113.44;;;5.19;69.05
30614;BME280;17381;51.690;5.270;2023-04-27T06:18:51;102102.13;;;5.18;68.96
30614;BME280;17381;51.690;5.270;2023-04-27T06:26:01;102115.47;;;5.38;68.71
30614;BME280;17381;51.690;5.270;2023-04-27T06:29:08;102118.28;;;5.51;68.38
30614;BME280;17381;51.690;5.270;2023-04-27T06:34:49;102127.97;;;5.58;68.28
30614;BME280;17381;51.690;5.270;2023-04-27T06:37:44;102109.00;;;5.68;68.32
30614;BME280;17381;51.690;5.270;2023-04-27T06:40:37;102097.78;;;5.74;68.16
30614;BME280;17381;51.690;5.270;2023-04-27T06:43:14;102098.88;;;5.89;68.08
30614;BME280;17381;51.690;5.270;2023-04-27T06:45:54;102106.06;;;6.06;68.06
30614;BME280;17381;51.690;5.270;2023-04-27T06:56:21;102110.88;;;6.42;67.18
30614;BME280;17381;51.690;5.270;2023-04-27T08:16:35;102114.38;;;9.01;60.54
30614;BME280;17381;51.690;5.270;2023-04-27T08:31:25;102102.16;;;9.31;59.49
30614;BME280;17381;51.690;5.270;2023-04-27T08:34:39;102073.28;;;9.35;58.34
30614;BME280;17381;51.690;5.270;2023-04-27T08:52:42;102074.81;;;10.19;56.62
30614;BME280;17381;51.690;5.270;2023-04-27T08:59:31;102072.75;;;10.81;55.18
30614;BME280;17381;51.690;5.270;2023-04-27T10:21:25;102002.59;;;14.72;43.52
30614;BME280;17381;51.690;5.270;2023-04-27T10:24:06;102038.03;;;15.02;43.01
30614;BME280;17381;51.690;5.270;2023-04-27T10:27:16;102045.56;;;15.18;41.71
30614;BME280;17381;51.690;5.270;2023-04-27T10:29:53;102056.69;;;15.32;42.34
30614;BME280;17381;51.690;5.270;2023-04-27T10:32:37;102034.97;;;15.51;43.28
30614;BME280;17381;51.690;5.270;2023-04-27T10:35:44;102035.91;;;15.82;41.59
30614;BME280;17381;51.690;5.270;2023-04-27T10:38:55;102042.16;;;16.11;41.62
30614;BME280;17381;51.690;5.270;2023-04-27T10:41:52;102030.53;;;16.45;41.64
30614;BME280;17381;51.690;5.270;2023-04-27T10:44:26;102004.53;;;16.54;40.03
30614;BME280;17381;51.690;5.270;2023-04-27T10:47:21;102030.06;;;16.88;39.73
30614;BME280;17381;51.690;5.270;2023-04-27T10:50:13;102017.84;;;17.09;39.95
30614;BME280;17381;51.690;5.270;2023-04-27T10:53:23;102013.44;;;17.33;38.16
30614;BME280;17381;51.690;5.270;2023-04-27T10:56:12;102015.50;;;17.50;39.72
30614;BME280;17381;51.690;5.270;2023-04-27T10:59:06;102004.66;;;17.56;39.51
30614;BME280;17381;51.690;5.270;2023-04-27T11:02:08;102008.59;;;17.95;38.22
30614;BME280;17381;51.690;5.270;2023-04-27T11:04:49;101991.28;;;18.06;37.32
30614;BME280;17381;51.690;5.270;2023-04-27T11:10:49;102003.88;;;18.69;38.18
30614;BME280;17381;51.690;5.270;2023-04-27T11:13:51;102003.16;;;18.87;36.56
30614;BME280;17381;51.690;5.270;2023-04-27T11:16:29;101992.44;;;18.89;35.69
30614;BME280;17381;51.690;5.270;2023-04-27T11:19:29;101984.91;;;18.99;36.33
30614;BME280;17381;51.690;5.270;2023-04-27T11:23:03;101976.41;;;19.11;34.83
30614;BME280;17381;51.690;5.270;2023-04-27T11:25:52;101983.09;;;19.40;35.97
30614;BME280;17381;51.690;5.270;2023-04-27T11:29:09;101979.09;;;19.71;35.67
30614;BME280;17381;51.690;5.270;2023-04-27T11:32:06;101980.59;;;19.76;34.71
30614;BME280;17381;51.690;5.270;2023-04-27T11:34:59;101966.91;;;20.03;34.67
30614;BME280;17381;51.690;5.270;2023-04-27T11:37:57;101963.13;;;20.26;35.90
30614;BME280;17381;51.690;5.270;2023-04-27T11:40:35;101955.81;;;20.48;34.14
30614;BME280;17381;51.690;5.270;2023-04-27T11:43:36;101965.97;;;20.59;34.86
30614;BME280;17381;51.690;5.270;2023-04-27T11:46:38;101964.81;;;20.65;35.65
30614;BME280;17381;51.690;5.270;2023-04-27T11:49:11;101957.03;;;20.78;34.56
30614;BME280;17381;51.690;5.270;2023-04-27T11:51:56;101958.31;;;20.88;34.03
30614;BME280;17381;51.690;5.270;2023-04-27T11:54:58;101955.78;;;21.02;34.02
30614;BME280;17381;51.690;5.270;2023-04-27T11:58:43;101951.19;;;21.22;33.60
30614;BME280;17381;51.690;5.270;2023-04-27T12:01:30;101958.56;;;21.34;33.09
30614;BME280;17381;51.690;5.270;2023-04-27T12:04:32;101945.78;;;21.41;33.71
30614;BME280;17381;51.690;5.270;2023-04-27T12:07:39;101906.81;;;21.35;33.27
30614;BME280;17381;51.690;5.270;2023-04-27T12:13:28;101942.50;;;21.85;31.80
30614;BME280;17381;51.690;5.270;2023-04-27T12:16:06;101939.81;;;22.00;31.81
30614;BME280;17381;51.690;5.270;2023-04-27T12:18:33;101933.50;;;22.02;31.45
30614;BME280;17381;51.690;5.270;2023-04-27T12:21:05;101918.91;;;22.07;30.49
30614;BME280;17381;51.690;5.270;2023-04-27T12:23:58;101937.06;;;22.18;31.87
30614;BME280;17381;51.690;5.270;2023-04-27T12:26:55;101891.09;;;22.10;31.20
30614;BME280;17381;51.690;5.270;2023-04-27T12:29:42;101923.06;;;22.29;29.87
30614;BME280;17381;51.690;5.270;2023-04-27T12:32:20;101924.00;;;22.28;31.38
30614;BME280;17381;51.690;5.270;2023-04-27T12:35:09;101919.97;;;22.51;32.41
30614;BME280;17381;51.690;5.270;2023-04-27T12:37:49;101912.13;;;22.78;31.17
30614;BME280;17381;51.690;5.270;2023-04-27T12:40:26;101916.44;;;23.11;30.76
30614;BME280;17381;51.690;5.270;2023-04-27T12:43:18;101912.69;;;23.27;31.10
30614;BME280;17381;51.690;5.270;2023-04-27T12:45:55;101850.22;;;22.97;28.46
30614;BME280;17381;51.690;5.270;2023-04-27T12:48:29;101915.84;;;23.48;29.60
30614;BME280;17381;51.690;5.270;2023-04-27T12:51:17;101897.66;;;23.39;29.64
30614;BME280;17381;51.690;5.270;2023-04-27T12:54:01;101914.03;;;23.49;29.32
30614;BME280;17381;51.690;5.270;2023-04-27T12:56:51;101904.66;;;23.27;30.76
30614;BME280;17381;51.690;5.270;2023-04-27T12:59:34;101886.81;;;23.12;28.55
30614;BME280;17381;51.690;5.270;2023-04-27T13:02:36;101904.78;;;22.96;28.86
30614;BME280;17381;51.690;5.270;2023-04-27T13:05:15;101905.72;;;22.80;30.18
30614;BME280;17381;51.690;5.270;2023-04-27T13:07:55;101887.72;;;22.82;30.35
30614;BME280;17381;51.690;5.270;2023-04-27T13:10:52;101871.28;;;22.58;28.58
30614;BME280;17381;51.690;5.270;2023-04-27T13:13:33;101884.72;;;22.28;28.01
30614;BME280;17381;51.690;5.270;2023-04-27T13:16:29;101899.47;;;21.88;28.65
30614;BME280;17381;51.690;5.270;2023-04-27T13:19:31;101870.94;;;21.39;28.50
30614;BME280;17381;51.690;5.270;2023-04-27T13:22:14;101894.09;;;21.40;30.55
30614;BME280;17381;51.690;5.270;2023-04-27T13:24:58;101882.38;;;21.43;31.42
30614;BME280;17381;51.690;5.270;2023-04-27T13:27:52;101888.41;;;21.46;29.88
30614;BME280;17381;51.690;5.270;2023-04-27T13:30:44;101871.09;;;21.36;29.03
30614;BME280;17381;51.690;5.270;2023-04-27T13:33:37;101880.09;;;21.35;31.62
30614;BME280;17381;51.690;5.270;2023-04-27T13:36:52;101868.91;;;21.27;30.44
30614;BME280;17381;51.690;5.270;2023-04-27T13:39:51;101863.72;;;21.24;30.29
30614;BME280;17381;51.690;5.270;2023-04-27T13:42:43;101822.28;;;20.99;29.34
30614;BME280;17381;51.690;5.270;2023-04-27T13:45:37;101844.75;;;21.12;29.65
30614;BME280;17381;51.690;5.270;2023-04-27T13:48:30;101861.91;;;21.24;31.49
30614;BME280;17381;51.690;5.270;2023-04-27T13:51:06;101856.41;;;21.27;31.34
30614;BME280;17381;51.690;5.270;2023-04-27T13:54:04;101852.78;;;21.28;30.80
30614;BME280;17381;51.690;5.270;2023-04-27T13:56:49;101852.75;;;21.12;29.13
30614;BME280;17381;51.690;5.270;2023-04-27T13:59:41;101837.50;;;20.81;29.79
30614;BME280;17381;51.690;5.270;2023-04-27T14:02:53;101826.63;;;20.49;29.89
30614;BME280;17381;51.690;5.270;2023-04-27T14:06:11;101818.47;;;20.35;28.28
30614;BME280;17381;51.690;5.270;2023-04-27T14:12:03;101817.16;;;20.26;30.26
30614;BME280;17381;51.690;5.270;2023-04-27T14:14:52;101824.69;;;20.36;30.37
30614;BME280;17381;51.690;5.270;2023-04-27T14:17:47;101814.97;;;20.35;31.94
30614;BME280;17381;51.690;5.270;2023-04-27T14:20:47;101808.31;;;20.42;31.75
30614;BME280;17381;51.690;5.270;2023-04-27T14:23:48;101794.50;;;20.34;31.69
30614;BME280;17381;51.690;5.270;2023-04-27T14:26:37;101814.06;;;20.52;32.01
30614;BME280;17381;51.690;5.270;2023-04-27T14:29:33;101804.28;;;20.35;29.37
30614;BME280;17381;51.690;5.270;2023-04-27T14:32:12;101810.88;;;20.27;32.02
30614;BME280;17381;51.690;5.270;2023-04-27T14:35:06;101802.00;;;20.27;32.49
30614;BME280;17381;51.690;5.270;2023-04-27T14:38:10;101798.69;;;20.22;31.71
30614;BME280;17381;51.690;5.270;2023-04-27T14:41:00;101786.34;;;20.02;31.25
30614;BME280;17381;51.690;5.270;2023-04-27T14:43:57;101771.09;;;19.87;30.84
30614;BME280;17381;51.690;5.270;2023-04-27T14:46:47;101769.03;;;19.74;30.65
30614;BME280;17381;51.690;5.270;2023-04-27T14:49:48;101780.97;;;19.67;30.70
30614;BME280;17381;51.690;5.270;2023-04-27T14:52:31;101769.34;;;19.68;31.69
30614;BME280;17381;51.690;5.270;2023-04-27T14:58:27;101796.81;;;19.88;29.82
30614;BME280;17381;51.690;5.270;2023-04-27T15:04:42;101784.03;;;19.77;30.78
30614;BME280;17381;51.690;5.270;2023-04-27T15:07:36;101780.19;;;19.64;30.94
30614;BME280;17381;51.690;5.270;2023-04-27T15:10:25;101790.16;;;19.60;31.77
30614;BME280;17381;51.690;5.270;2023-04-27T15:13:22;101775.97;;;19.40;31.25
30614;BME280;17381;51.690;5.270;2023-04-27T15:16:14;101774.53;;;19.33;31.82
30614;BME280;17381;51.690;5.270;2023-04-27T15:19:22;101777.81;;;19.21;31.67
30614;BME280;17381;51.690;5.270;2023-04-27T15:22:34;101767.34;;;18.98;31.58
30614;BME280;17381;51.690;5.270;2023-04-27T15:25:27;101774.44;;;18.78;31.22
30614;BME280;17381;51.690;5.270;2023-04-27T15:28:42;101777.75;;;18.63;31.37
30614;BME280;17381;51.690;5.270;2023-04-27T15:31:47;101780.19;;;18.48;33.03
30614;BME280;17381;51.690;5.270;2023-04-27T15:34:38;101739.31;;;18.29;33.20
30614;BME280;17381;51.690;5.270;2023-04-27T15:37:22;101776.97;;;18.40;31.16
30614;BME280;17381;51.690;5.270;2023-04-27T15:40:13;101765.59;;;18.16;32.41
30614;BME280;17381;51.690;5.270;2023-04-27T15:43:15;101771.38;;;18.05;32.59
30614;BME280;17381;51.690;5.270;2023-04-27T15:46:24;101757.34;;;18.02;32.19
30614;BME280;17381;51.690;5.270;2023-04-27T15:49:20;101764.16;;;17.87;32.28
30614;BME280;17381;51.690;5.270;2023-04-27T15:52:06;101758.50;;;17.73;32.67
30614;BME280;17381;51.690;5.270;2023-04-27T15:55:05;101759.88;;;17.61;32.94
30614;BME280;17381;51.690;5.270;2023-04-27T15:58:26;101754.31;;;17.45;32.68
30614;BME280;17381;51.690;5.270;2023-04-27T16:01:02;101712.25;;;17.11;32.40
30614;BME280;17381;51.690;5.270;2023-04-27T16:04:11;101721.97;;;17.12;33.50
30614;BME280;17381;51.690;5.270;2023-04-27T16:07:05;101729.03;;;17.11;33.03
30614;BME280;17381;51.690;5.270;2023-04-27T16:10:53;101720.47;;;17.05;33.71
30614;BME280;17381;51.690;5.270;2023-04-27T16:14:04;101718.78;;;17.02;33.93
30614;BME280;17381;51.690;5.270;2023-04-27T16:16:56;101701.59;;;16.89;34.02
30614;BME280;17381;51.690;5.270;2023-04-27T16:31:36;101695.78;;;17.25;33.24
30614;BME280;17381;51.690;5.270;2023-04-27T16:35:02;101685.06;;;17.04;34.12
30614;BME280;17381;51.690;5.270;2023-04-27T16:49:47;101686.53;;;16.16;35.19
30614;BME280;17381;51.690;5.270;2023-04-27T17:03:26;101657.16;;;15.43;35.28
30614;BME280;17381;51.690;5.270;2023-04-27T17:06:10;101668.91;;;15.36;36.37
30614;BME280;17381;51.690;5.270;2023-04-27T17:09:33;101652.19;;;15.34;36.21
30614;BME280;17381;51.690;5.270;2023-04-27T17:12:48;101653.19;;;15.30;36.60
30614;BME280;17381;51.690;5.270;2023-04-27T17:19:01;101653.75;;;15.13;36.43
30614;BME280;17381;51.690;5.270;2023-04-27T17:26:19;101680.13;;;15.16;37.44
30614;BME280;17381;51.690;5.270;2023-04-27T17:32:55;101661.97;;;15.04;36.13
30614;BME280;17381;51.690;5.270;2023-04-27T17:35:36;101662.31;;;14.93;36.84
30614;BME280;17381;51.690;5.270;2023-04-27T17:38:34;101645.91;;;14.82;36.00
30614;BME280;17381;51.690;5.270;2023-04-27T17:41:50;101645.16;;;14.77;37.20
30614;BME280;17381;51.690;5.270;2023-04-27T17:56:57;101628.50;;;14.42;37.99
30614;BME280;17381;51.690;5.270;2023-04-27T18:32:51;101637.69;;;13.98;38.42
30614;BME280;17381;51.690;5.270;2023-04-27T19:06:30;101636.44;;;13.45;39.64
30614;BME280;17381;51.690;5.270;2023-04-27T19:16:14;101628.03;;;13.29;40.56
30614;BME280;17381;51.690;5.270;2023-04-27T19:19:35;101572.47;;;12.97;40.12
30614;BME280;17381;51.690;5.270;2023-04-27T19:26:00;101630.84;;;13.20;40.32
30614;BME280;17381;51.690;5.270;2023-04-27T19:28:50;101624.88;;;13.12;40.61
30614;BME280;17381;51.690;5.270;2023-04-27T19:31:32;101624.88;;;13.12;40.53
30614;BME280;17381;51.690;5.270;2023-04-27T19:46:42;101612.47;;;12.77;41.64
30614;BME280;17381;51.690;5.270;2023-04-27T19:49:08;101622.97;;;12.80;42.02
30614;BME280;17381;51.690;5.270;2023-04-27T19:55:51;101601.00;;;12.79;41.83
30614;BME280;17381;51.690;5.270;2023-04-27T19:58:17;101607.28;;;12.74;42.31
30614;BME280;17381;51.690;5.270;2023-04-27T20:00:48;101601.22;;;12.70;42.60
30614;BME280;17381;51.690;5.270;2023-04-27T20:03:23;101592.59;;;12.62;42.46
30614;BME280;17381;51.690;5.270;2023-04-27T20:05:54;101605.66;;;12.68;42.55
30614;BME280;17381;51.690;5.270;2023-04-27T20:08:51;101614.44;;;12.67;42.54
30614;BME280;17381;51.690;5.270;2023-04-27T20:11:42;101605.91;;;12.56;42.70
30614;BME280;17381;51.690;5.270;2023-04-27T20:14:36;101608.56;;;12.56;42.70
30614;BME280;17381;51.690;5.270;2023-04-27T20:24:33;101608.84;;;12.42;43.41
30614;BME280;17381;51.690;5.270;2023-04-27T20:27:19;101563.84;;;12.09;43.40
30614;BME280;17381;51.690;5.270;2023-04-27T20:29:48;101609.78;;;12.39;43.45
30614;BME280;17381;51.690;5.270;2023-04-27T20:38:16;101594.13;;;12.32;43.06
30614;BME280;17381;51.690;5.270;2023-04-27T20:44:59;101588.25;;;12.19;43.86
30614;BME280;17381;51.690;5.270;2023-04-27T20:47:44;101572.44;;;12.17;43.94
30614;BME280;17381;51.690;5.270;2023-04-27T20:54:49;101557.66;;;12.10;44.01
30614;BME280;17381;51.690;5.270;2023-04-27T20:57:30;101449.91;;;11.53;44.49
30614;BME280;17381;51.690;5.270;2023-04-27T21:00:06;101526.25;;;12.01;44.12
30614;BME280;17381;51.690;5.270;2023-04-27T21:03:13;101534.84;;;12.09;44.65
30614;BME280;17381;51.690;5.270;2023-04-27T21:06:29;101512.22;;;12.00;44.74
30614;BME280;17381;51.690;5.270;2023-04-27T21:09:18;101521.78;;;12.05;44.60
30614;BME280;17381;51.690;5.270;2023-04-27T21:12:14;101526.19;;;12.04;44.65
30614;BME280;17381;51.690;5.270;2023-04-27T21:15:05;101500.94;;;11.92;44.77
30614;BME280;17381;51.690;5.270;2023-04-27T21:17:46;101495.72;;;11.91;44.64
30614;BME280;17381;51.690;5.270;2023-04-27T21:20:42;101497.50;;;11.89;44.37
30614;BME280;17381;51.690;5.270;2023-04-27T21:23:41;101492.38;;;11.81;44.78
30614;BME280;17381;51.690;5.270;2023-04-27T21:26:32;101494.09;;;11.82;45.23
30614;BME280;17381;51.690;5.270;2023-04-27T21:29:17;101485.38;;;11.80;45.13
30614;BME280;17381;51.690;5.270;2023-04-27T21:32:15;101495.88;;;11.82;44.82
30614;BME280;17381;51.690;5.270;2023-04-27T21:35:02;101491.56;;;11.77;44.90
30614;BME280;17381;51.690;5.270;2023-04-27T21:37:49;101415.16;;;11.35;44.64
30614;BME280;17381;51.690;5.270;2023-04-27T21:40:52;101475.94;;;11.68;45.28
30614;BME280;17381;51.690;5.270;2023-04-27T21:43:56;101457.59;;;11.64;44.83
30614;BME280;17381;51.690;5.270;2023-04-27T21:46:57;101470.75;;;11.64;45.17
30614;BME280;17381;51.690;5.270;2023-04-27T21:49:59;101449.06;;;11.52;45.58
30614;BME280;17381;51.690;5.270;2023-04-27T21:52:42;101426.59;;;11.36;45.09
30614;BME280;17381;51.690;5.270;2023-04-27T21:55:15;101457.72;;;11.59;45.18
30614;BME280;17381;51.690;5.270;2023-04-27T21:58:17;101435.16;;;11.46;45.03
30614;BME280;17381;51.690;5.270;2023-04-27T22:01:16;101452.63;;;11.50;45.76
30614;BME280;17381;51.690;5.270;2023-04-27T22:04:09;101452.63;;;11.48;45.58
30614;BME280;17381;51.690;5.270;2023-04-27T22:07:03;101430.94;;;11.35;45.93
30614;BME280;17381;51.690;5.270;2023-04-27T22:09:58;101456.88;;;11.57;45.93
30614;BME280;17381;51.690;5.270;2023-04-27T22:12:38;101460.31;;;11.61;45.60
30614;BME280;17381;51.690;5.270;2023-04-27T22:15:09;101459.47;;;11.58;46.01
30614;BME280;17381;51.690;5.270;2023-04-27T22:18:01;101449.00;;;11.55;46.17
30614;BME280;17381;51.690;5.270;2023-04-27T22:21:06;101455.09;;;11.59;46.46
30614;BME280;17381;51.690;5.270;2023-04-27T22:23:52;101448.19;;;11.52;45.91
30614;BME280;17381;51.690;5.270;2023-04-27T22:26:46;101446.50;;;11.49;46.34
30614;BME280;17381;51.690;5.270;2023-04-27T22:29:36;101413.44;;;11.36;46.68
30614;BME280;17381;51.690;5.270;2023-04-27T22:32:30;101416.75;;;11.44;47.16
30614;BME280;17381;51.690;5.270;2023-04-27T22:35:33;101416.78;;;11.43;47.43
30614;BME280;17381;51.690;5.270;2023-04-27T22:38:37;101415.13;;;11.39;47.57
30614;BME280;17381;51.690;5.270;2023-04-27T22:41:22;101400.38;;;11.30;47.70
30614;BME280;17381;51.690;5.270;2023-04-27T22:44:05;101401.28;;;11.29;47.89
30614;BME280;17381;51.690;5.270;2023-04-27T22:46:58;101403.03;;;11.28;47.90
30614;BME280;17381;51.690;5.270;2023-04-27T22:50:21;101416.28;;;11.24;47.94
30614;BME280;17381;51.690;5.270;2023-04-27T22:53:29;101405.84;;;11.19;48.07
30614;BME280;17381;51.690;5.270;2023-04-27T22:56:29;101408.34;;;11.25;48.47
30614;BME280;17381;51.690;5.270;2023-04-27T22:59:37;101412.69;;;11.28;48.06
30614;BME280;17381;51.690;5.270;2023-04-27T23:02:37;101402.22;;;11.26;48.21
30614;BME280;17381;51.690;5.270;2023-04-27T23:05:37;101384.81;;;11.18;48.40
30614;BME280;17381;51.690;5.270;2023-04-27T23:08:25;101388.34;;;11.18;48.63
30614;BME280;17381;51.690;5.270;2023-04-27T23:11:11;101391.91;;;11.16;49.38
30614;BME280;17381;51.690;5.270;2023-04-27T23:14:00;101397.19;;;11.12;49.79
30614;BME280;17381;51.690;5.270;2023-04-27T23:16:52;101381.38;;;11.16;50.13
30614;BME280;17381;51.690;5.270;2023-04-27T23:20:04;101374.47;;;11.08;49.83
30614;BME280;17381;51.690;5.270;2023-04-27T23:23:00;101375.34;;;11.09;50.30
30614;BME280;17381;51.690;5.270;2023-04-27T23:25:57;101326.81;;;10.79;50.19
30614;BME280;17381;51.690;5.270;2023-04-27T23:28:57;101371.22;;;10.97;50.81
30614;BME280;17381;51.690;5.270;2023-04-27T23:32:18;101234.97;;;10.21;51.20
30614;BME280;17381;51.690;5.270;2023-04-27T23:34:52;101347.56;;;10.94;50.86
30614;BME280;17381;51.690;5.270;2023-04-27T23:37:48;101343.34;;;10.87;51.24
30614;BME280;17381;51.690;5.270;2023-04-27T23:40:30;101345.22;;;10.79;51.69
30614;BME280;17381;51.690;5.270;2023-04-27T23:43:18;101332.97;;;10.78;52.13
30614;BME280;17381;51.690;5.270;2023-04-27T23:46:15;101346.13;;;10.79;52.60
30614;BME280;17381;51.690;5.270;2023-04-27T23:48:48;101345.22;;;10.79;52.73
30614;BME280;17381;51.690;5.270;2023-04-27T23:51:44;101335.63;;;10.78;52.95
30614;BME280;17381;51.690;5.270;2023-04-27T23:54:40;101337.34;;;10.79;53.13
30614;BME280;17381;51.690;5.270;2023-04-27T23:57:31;101334.78;;;10.76;52.80
